sensor_id;sensor_type;location;lat;lon;timestamp;temperature;humidity
37594;DHT22;23441;50.856;6.076;2022-10-16T00:00:38;13.20;99.90
37594;DHT22;23441;50.856;6.076;2022-10-16T00:03:05;13.20;99.90
37594;DHT22;23441;50.856;6.076;2022-10-16T00:05:30;13.20;99.90
37594;DHT22;23441;50.856;6.076;2022-10-16T00:07:56;13.20;99.90
37594;DHT22;23441;50.856;6.076;2022-10-16T00:10:23;13.10;99.90
37594;DHT22;23441;50.856;6.076;2022-10-16T00:12:49;13.10;99.90
37594;DHT22;23441;50.856;6.076;2022-10-16T00:15:15;13.00;99.90
37594;DHT22;23441;50.856;6.076;2022-10-16T00:17:41;13.00;99.90
37594;DHT22;23441;50.856;6.076;2022-10-16T00:20:07;12.90;99.90
37594;DHT22;23441;50.856;6.076;2022-10-16T00:22:33;12.80;99.90
37594;DHT22;23441;50.856;6.076;2022-10-16T00:24:59;12.90;99.90
37594;DHT22;23441;50.856;6.076;2022-10-16T00:27:24;12.90;99.90
37594;DHT22;23441;50.856;6.076;2022-10-16T00:29:51;12.80;99.90
37594;DHT22;23441;50.856;6.076;2022-10-16T00:32:18;12.80;99.90
37594;DHT22;23441;50.856;6.076;2022-10-16T00:34:43;12.80;99.90
37594;DHT22;23441;50.856;6.076;2022-10-16T00:37:09;12.90;99.90
37594;DHT22;23441;50.856;6.076;2022-10-16T00:39:35;12.70;99.90
37594;DHT22;23441;50.856;6.076;2022-10-16T00:42:01;12.70;99.90
37594;DHT22;23441;50.856;6.076;2022-10-16T00:50:00;12.60;99.90
37594;DHT22;23441;50.856;6.076;2022-10-16T00:52:27;12.60;99.90
37594;DHT22;23441;50.856;6.076;2022-10-16T00:54:54;12.50;99.90
37594;DHT22;23441;50.856;6.076;2022-10-16T00:57:21;12.50;99.90
37594;DHT22;23441;50.856;6.076;2022-10-16T00:59:47;12.40;99.90
37594;DHT22;23441;50.856;6.076;2022-10-16T01:02:14;12.40;99.90
37594;DHT22;23441;50.856;6.076;2022-10-16T01:04:44;12.30;99.90
37594;DHT22;23441;50.856;6.076;2022-10-16T01:12:58;12.30;99.90
37594;DHT22;23441;50.856;6.076;2022-10-16T01:15:44;12.40;99.90
37594;DHT22;23441;50.856;6.076;2022-10-16T01:18:45;12.40;99.90
37594;DHT22;23441;50.856;6.076;2022-10-16T01:21:31;12.40;99.90
37594;DHT22;23441;50.856;6.076;2022-10-16T01:29:51;12.70;99.90
37594;DHT22;23441;50.856;6.076;2022-10-16T01:35:09;12.70;99.90
37594;DHT22;23441;50.856;6.076;2022-10-16T01:40:11;12.80;99.90
37594;DHT22;23441;50.856;6.076;2022-10-16T01:43:40;12.80;99.90
37594;DHT22;23441;50.856;6.076;2022-10-16T01:45:47;13.00;99.90
37594;DHT22;23441;50.856;6.076;2022-10-16T01:48:18;12.90;99.90
37594;DHT22;23441;50.856;6.076;2022-10-16T01:50:56;12.90;99.90
37594;DHT22;23441;50.856;6.076;2022-10-16T01:53:23;12.90;99.90
37594;DHT22;23441;50.856;6.076;2022-10-16T01:55:52;12.90;99.90
37594;DHT22;23441;50.856;6.076;2022-10-16T01:58:20;12.90;99.90
37594;DHT22;23441;50.856;6.076;2022-10-16T02:00:47;12.80;99.90
37594;DHT22;23441;50.856;6.076;2022-10-16T02:03:16;12.80;99.90
37594;DHT22;23441;50.856;6.076;2022-10-16T02:05:47;12.90;99.90
37594;DHT22;23441;50.856;6.076;2022-10-16T02:08:14;12.90;99.90
37594;DHT22;23441;50.856;6.076;2022-10-16T02:10:40;12.80;99.90
37594;DHT22;23441;50.856;6.076;2022-10-16T02:13:10;12.80;99.90
37594;DHT22;23441;50.856;6.076;2022-10-16T02:15:36;13.00;99.90
37594;DHT22;23441;50.856;6.076;2022-10-16T02:18:05;13.10;99.90
37594;DHT22;23441;50.856;6.076;2022-10-16T02:20:38;13.00;99.90
37594;DHT22;23441;50.856;6.076;2022-10-16T02:23:09;13.00;99.90
37594;DHT22;23441;50.856;6.076;2022-10-16T02:25:40;12.90;99.90
37594;DHT22;23441;50.856;6.076;2022-10-16T02:28:16;12.90;99.90
37594;DHT22;23441;50.856;6.076;2022-10-16T02:33:11;12.70;99.90
37594;DHT22;23441;50.856;6.076;2022-10-16T02:35:40;12.70;99.90
37594;DHT22;23441;50.856;6.076;2022-10-16T02:38:08;12.60;99.90
37594;DHT22;23441;50.856;6.076;2022-10-16T02:40:35;12.60;99.90
37594;DHT22;23441;50.856;6.076;2022-10-16T02:43:04;12.60;99.90
37594;DHT22;23441;50.856;6.076;2022-10-16T02:45:30;12.50;99.90
37594;DHT22;23441;50.856;6.076;2022-10-16T02:47:56;12.50;99.90
37594;DHT22;23441;50.856;6.076;2022-10-16T02:50:22;12.60;99.90
37594;DHT22;23441;50.856;6.076;2022-10-16T02:52:48;12.60;99.90
37594;DHT22;23441;50.856;6.076;2022-10-16T02:55:14;12.60;99.90
37594;DHT22;23441;50.856;6.076;2022-10-16T02:57:40;12.60;99.90
37594;DHT22;23441;50.856;6.076;2022-10-16T03:00:07;12.60;99.90
37594;DHT22;23441;50.856;6.076;2022-10-16T03:02:34;12.50;99.90
37594;DHT22;23441;50.856;6.076;2022-10-16T03:05:00;12.50;99.90
37594;DHT22;23441;50.856;6.076;2022-10-16T03:07:26;12.60;99.90
37594;DHT22;23441;50.856;6.076;2022-10-16T03:09:51;12.60;99.90
37594;DHT22;23441;50.856;6.076;2022-10-16T03:12:17;12.60;99.90
37594;DHT22;23441;50.856;6.076;2022-10-16T03:14:43;12.60;99.90
37594;DHT22;23441;50.856;6.076;2022-10-16T03:17:09;12.50;99.90
37594;DHT22;23441;50.856;6.076;2022-10-16T03:19:34;12.60;99.90
37594;DHT22;23441;50.856;6.076;2022-10-16T03:22:01;12.60;99.90
37594;DHT22;23441;50.856;6.076;2022-10-16T03:24:27;12.50;99.90
37594;DHT22;23441;50.856;6.076;2022-10-16T03:26:53;12.40;99.90
37594;DHT22;23441;50.856;6.076;2022-10-16T03:29:18;12.60;99.90
37594;DHT22;23441;50.856;6.076;2022-10-16T03:31:44;12.70;99.90
37594;DHT22;23441;50.856;6.076;2022-10-16T03:34:10;12.70;99.90
37594;DHT22;23441;50.856;6.076;2022-10-16T03:36:36;12.70;99.90
37594;DHT22;23441;50.856;6.076;2022-10-16T03:39:02;12.70;99.90
37594;DHT22;23441;50.856;6.076;2022-10-16T03:41:27;12.70;99.90
37594;DHT22;23441;50.856;6.076;2022-10-16T03:43:53;12.70;99.90
37594;DHT22;23441;50.856;6.076;2022-10-16T03:46:19;12.70;99.90
37594;DHT22;23441;50.856;6.076;2022-10-16T03:48:45;12.60;99.90
37594;DHT22;23441;50.856;6.076;2022-10-16T03:51:10;12.50;99.90
37594;DHT22;23441;50.856;6.076;2022-10-16T03:53:36;12.40;99.90
37594;DHT22;23441;50.856;6.076;2022-10-16T03:56:02;12.40;99.90
37594;DHT22;23441;50.856;6.076;2022-10-16T03:58:27;12.50;99.90
37594;DHT22;23441;50.856;6.076;2022-10-16T04:00:54;12.40;99.90
37594;DHT22;23441;50.856;6.076;2022-10-16T04:03:20;12.40;99.90
37594;DHT22;23441;50.856;6.076;2022-10-16T04:05:47;12.50;99.90
37594;DHT22;23441;50.856;6.076;2022-10-16T04:08:12;12.50;99.90
37594;DHT22;23441;50.856;6.076;2022-10-16T04:10:38;12.40;99.90
37594;DHT22;23441;50.856;6.076;2022-10-16T04:13:04;12.40;99.90
37594;DHT22;23441;50.856;6.076;2022-10-16T04:15:29;12.40;99.90
37594;DHT22;23441;50.856;6.076;2022-10-16T04:17:55;12.40;99.90
37594;DHT22;23441;50.856;6.076;2022-10-16T04:20:21;12.30;99.90
37594;DHT22;23441;50.856;6.076;2022-10-16T04:22:46;12.20;99.90
37594;DHT22;23441;50.856;6.076;2022-10-16T04:25:12;12.30;99.90
37594;DHT22;23441;50.856;6.076;2022-10-16T04:27:39;12.20;99.90
37594;DHT22;23441;50.856;6.076;2022-10-16T04:30:05;12.20;99.90
37594;DHT22;23441;50.856;6.076;2022-10-16T04:32:31;12.20;99.90
37594;DHT22;23441;50.856;6.076;2022-10-16T04:34:56;12.30;99.90
37594;DHT22;23441;50.856;6.076;2022-10-16T04:37:26;12.40;99.90
37594;DHT22;23441;50.856;6.076;2022-10-16T04:39:52;12.30;99.90
37594;DHT22;23441;50.856;6.076;2022-10-16T04:42:18;12.40;99.90
37594;DHT22;23441;50.856;6.076;2022-10-16T04:44:43;12.40;99.90
37594;DHT22;23441;50.856;6.076;2022-10-16T04:47:09;12.40;99.90
37594;DHT22;23441;50.856;6.076;2022-10-16T04:49:35;12.40;99.90
37594;DHT22;23441;50.856;6.076;2022-10-16T04:52:00;12.30;99.90
37594;DHT22;23441;50.856;6.076;2022-10-16T04:54:26;12.40;99.90
37594;DHT22;23441;50.856;6.076;2022-10-16T04:56:52;12.30;99.90
37594;DHT22;23441;50.856;6.076;2022-10-16T04:59:19;12.30;99.90
37594;DHT22;23441;50.856;6.076;2022-10-16T05:01:45;12.30;99.90
37594;DHT22;23441;50.856;6.076;2022-10-16T05:04:11;12.30;99.90
37594;DHT22;23441;50.856;6.076;2022-10-16T05:06:38;12.50;99.90
37594;DHT22;23441;50.856;6.076;2022-10-16T05:09:06;12.50;99.90
37594;DHT22;23441;50.856;6.076;2022-10-16T05:11:33;12.40;99.90
37594;DHT22;23441;50.856;6.076;2022-10-16T05:13:58;12.30;99.90
37594;DHT22;23441;50.856;6.076;2022-10-16T05:16:24;12.40;99.90
37594;DHT22;23441;50.856;6.076;2022-10-16T05:18:54;12.30;99.90
37594;DHT22;23441;50.856;6.076;2022-10-16T05:21:20;12.40;99.90
37594;DHT22;23441;50.856;6.076;2022-10-16T05:23:46;12.40;99.90
37594;DHT22;23441;50.856;6.076;2022-10-16T05:26:11;12.50;99.90
37594;DHT22;23441;50.856;6.076;2022-10-16T05:28:37;12.50;99.90
37594;DHT22;23441;50.856;6.076;2022-10-16T05:31:07;12.50;99.90
37594;DHT22;23441;50.856;6.076;2022-10-16T05:33:33;12.50;99.90
37594;DHT22;23441;50.856;6.076;2022-10-16T05:36:04;12.40;99.90
37594;DHT22;23441;50.856;6.076;2022-10-16T05:38:30;12.50;99.90
37594;DHT22;23441;50.856;6.076;2022-10-16T05:40:56;12.40;99.90
37594;DHT22;23441;50.856;6.076;2022-10-16T05:43:22;12.40;99.90
37594;DHT22;23441;50.856;6.076;2022-10-16T05:46:14;12.40;99.90
37594;DHT22;23441;50.856;6.076;2022-10-16T05:48:40;12.40;99.90
37594;DHT22;23441;50.856;6.076;2022-10-16T05:51:07;12.40;99.90
37594;DHT22;23441;50.856;6.076;2022-10-16T05:53:35;12.40;99.90
37594;DHT22;23441;50.856;6.076;2022-10-16T05:56:01;12.50;99.90
37594;DHT22;23441;50.856;6.076;2022-10-16T05:58:36;12.50;99.90
37594;DHT22;23441;50.856;6.076;2022-10-16T06:01:05;12.50;99.90
37594;DHT22;23441;50.856;6.076;2022-10-16T06:03:31;12.50;99.90
37594;DHT22;23441;50.856;6.076;2022-10-16T06:05:56;12.50;99.90
37594;DHT22;23441;50.856;6.076;2022-10-16T06:08:22;12.50;99.90
37594;DHT22;23441;50.856;6.076;2022-10-16T06:10:57;12.50;99.90
37594;DHT22;23441;50.856;6.076;2022-10-16T06:13:25;12.60;99.90
37594;DHT22;23441;50.856;6.076;2022-10-16T06:15:51;12.60;99.90
37594;DHT22;23441;50.856;6.076;2022-10-16T06:18:16;12.70;99.90
37594;DHT22;23441;50.856;6.076;2022-10-16T06:20:42;12.70;99.90
37594;DHT22;23441;50.856;6.076;2022-10-16T06:23:08;12.70;99.90
37594;DHT22;23441;50.856;6.076;2022-10-16T06:25:33;12.70;99.90
37594;DHT22;23441;50.856;6.076;2022-10-16T06:27:59;12.70;99.90
37594;DHT22;23441;50.856;6.076;2022-10-16T06:30:25;12.70;99.90
37594;DHT22;23441;50.856;6.076;2022-10-16T06:32:51;12.90;99.90
37594;DHT22;23441;50.856;6.076;2022-10-16T06:35:16;13.00;99.90
37594;DHT22;23441;50.856;6.076;2022-10-16T06:37:42;13.00;99.90
37594;DHT22;23441;50.856;6.076;2022-10-16T06:40:08;13.00;99.90
37594;DHT22;23441;50.856;6.076;2022-10-16T06:42:34;13.00;99.90
37594;DHT22;23441;50.856;6.076;2022-10-16T06:44:59;13.00;99.90
37594;DHT22;23441;50.856;6.076;2022-10-16T06:47:27;12.90;99.90
37594;DHT22;23441;50.856;6.076;2022-10-16T06:49:52;12.90;99.90
37594;DHT22;23441;50.856;6.076;2022-10-16T06:52:18;12.90;99.90
37594;DHT22;23441;50.856;6.076;2022-10-16T06:54:44;13.00;99.90
37594;DHT22;23441;50.856;6.076;2022-10-16T06:57:09;12.90;99.90
37594;DHT22;23441;50.856;6.076;2022-10-16T06:59:35;12.90;99.90
37594;DHT22;23441;50.856;6.076;2022-10-16T07:02:01;12.90;99.90
37594;DHT22;23441;50.856;6.076;2022-10-16T07:04:26;12.70;99.90
37594;DHT22;23441;50.856;6.076;2022-10-16T07:06:52;12.80;99.90
37594;DHT22;23441;50.856;6.076;2022-10-16T07:09:18;12.90;99.90
37594;DHT22;23441;50.856;6.076;2022-10-16T07:11:43;13.00;99.90
37594;DHT22;23441;50.856;6.076;2022-10-16T07:14:17;13.00;99.90
37594;DHT22;23441;50.856;6.076;2022-10-16T07:16:44;12.90;99.90
37594;DHT22;23441;50.856;6.076;2022-10-16T07:19:10;13.00;99.90
37594;DHT22;23441;50.856;6.076;2022-10-16T07:21:37;12.90;99.90
37594;DHT22;23441;50.856;6.076;2022-10-16T07:24:10;13.00;99.90
37594;DHT22;23441;50.856;6.076;2022-10-16T07:26:37;13.00;99.90
37594;DHT22;23441;50.856;6.076;2022-10-16T07:29:06;13.10;99.90
37594;DHT22;23441;50.856;6.076;2022-10-16T07:31:33;13.40;99.90
37594;DHT22;23441;50.856;6.076;2022-10-16T07:33:59;13.40;99.90
37594;DHT22;23441;50.856;6.076;2022-10-16T07:36:25;13.50;99.90
37594;DHT22;23441;50.856;6.076;2022-10-16T07:38:51;13.70;99.90
37594;DHT22;23441;50.856;6.076;2022-10-16T07:41:19;13.70;99.90
37594;DHT22;23441;50.856;6.076;2022-10-16T07:43:49;13.70;99.90
37594;DHT22;23441;50.856;6.076;2022-10-16T07:46:15;13.70;99.90
37594;DHT22;23441;50.856;6.076;2022-10-16T07:48:42;13.70;99.90
37594;DHT22;23441;50.856;6.076;2022-10-16T07:51:12;13.70;99.90
37594;DHT22;23441;50.856;6.076;2022-10-16T07:53:38;13.70;99.90
37594;DHT22;23441;50.856;6.076;2022-10-16T07:56:05;13.80;99.90
37594;DHT22;23441;50.856;6.076;2022-10-16T07:58:33;13.80;99.90
37594;DHT22;23441;50.856;6.076;2022-10-16T08:01:03;13.90;99.90
37594;DHT22;23441;50.856;6.076;2022-10-16T08:03:29;13.90;99.90
37594;DHT22;23441;50.856;6.076;2022-10-16T08:05:57;13.90;99.90
37594;DHT22;23441;50.856;6.076;2022-10-16T08:08:23;14.00;99.90
37594;DHT22;23441;50.856;6.076;2022-10-16T08:10:49;14.10;99.90
37594;DHT22;23441;50.856;6.076;2022-10-16T08:13:15;14.10;99.90
37594;DHT22;23441;50.856;6.076;2022-10-16T08:15:45;14.20;99.90
37594;DHT22;23441;50.856;6.076;2022-10-16T08:18:12;14.20;99.90
37594;DHT22;23441;50.856;6.076;2022-10-16T08:20:38;14.20;99.90
37594;DHT22;23441;50.856;6.076;2022-10-16T08:23:04;14.40;99.90
37594;DHT22;23441;50.856;6.076;2022-10-16T08:25:30;14.40;99.90
37594;DHT22;23441;50.856;6.076;2022-10-16T08:27:56;14.60;99.90
37594;DHT22;23441;50.856;6.076;2022-10-16T08:30:23;14.60;99.90
37594;DHT22;23441;50.856;6.076;2022-10-16T08:32:49;14.70;99.90
37594;DHT22;23441;50.856;6.076;2022-10-16T08:35:15;14.70;99.90
37594;DHT22;23441;50.856;6.076;2022-10-16T08:37:42;14.70;99.90
37594;DHT22;23441;50.856;6.076;2022-10-16T08:40:17;14.70;99.90
37594;DHT22;23441;50.856;6.076;2022-10-16T08:43:09;14.80;99.90
37594;DHT22;23441;50.856;6.076;2022-10-16T08:46:11;14.90;99.90
37594;DHT22;23441;50.856;6.076;2022-10-16T08:51:34;15.00;99.90
37594;DHT22;23441;50.856;6.076;2022-10-16T08:54:05;15.10;99.90
37594;DHT22;23441;50.856;6.076;2022-10-16T08:56:32;15.10;99.90
37594;DHT22;23441;50.856;6.076;2022-10-16T08:58:59;15.10;99.90
37594;DHT22;23441;50.856;6.076;2022-10-16T09:01:37;15.20;99.90
37594;DHT22;23441;50.856;6.076;2022-10-16T09:04:42;15.30;99.90
37594;DHT22;23441;50.856;6.076;2022-10-16T09:12:42;15.40;99.90
37594;DHT22;23441;50.856;6.076;2022-10-16T09:17:43;15.50;99.90
37594;DHT22;23441;50.856;6.076;2022-10-16T09:22:40;15.70;99.90
37594;DHT22;23441;50.856;6.076;2022-10-16T09:25:18;15.70;99.90
37594;DHT22;23441;50.856;6.076;2022-10-16T09:27:47;15.70;99.90
37594;DHT22;23441;50.856;6.076;2022-10-16T09:30:19;15.90;99.90
37594;DHT22;23441;50.856;6.076;2022-10-16T09:32:48;15.80;99.90
37594;DHT22;23441;50.856;6.076;2022-10-16T09:35:20;16.00;99.90
37594;DHT22;23441;50.856;6.076;2022-10-16T09:37:50;16.20;99.90
37594;DHT22;23441;50.856;6.076;2022-10-16T09:43:20;16.30;99.90
37594;DHT22;23441;50.856;6.076;2022-10-16T09:46:01;16.30;99.90
37594;DHT22;23441;50.856;6.076;2022-10-16T09:48:39;16.30;99.90
37594;DHT22;23441;50.856;6.076;2022-10-16T09:51:27;16.30;99.90
37594;DHT22;23441;50.856;6.076;2022-10-16T09:54:02;16.30;99.90
37594;DHT22;23441;50.856;6.076;2022-10-16T09:56:33;16.40;99.90
37594;DHT22;23441;50.856;6.076;2022-10-16T09:59:02;16.60;99.90
37594;DHT22;23441;50.856;6.076;2022-10-16T10:01:41;16.70;99.90
37594;DHT22;23441;50.856;6.076;2022-10-16T10:04:07;16.90;99.90
37594;DHT22;23441;50.856;6.076;2022-10-16T10:06:36;17.30;99.90
37594;DHT22;23441;50.856;6.076;2022-10-16T10:09:37;17.30;99.90
37594;DHT22;23441;50.856;6.076;2022-10-16T10:12:05;17.00;99.90
37594;DHT22;23441;50.856;6.076;2022-10-16T10:14:40;16.90;99.90
37594;DHT22;23441;50.856;6.076;2022-10-16T10:17:21;17.00;99.90
37594;DHT22;23441;50.856;6.076;2022-10-16T10:19:51;16.90;99.90
37594;DHT22;23441;50.856;6.076;2022-10-16T10:30:44;16.70;99.90
37594;DHT22;23441;50.856;6.076;2022-10-16T10:36:08;16.90;99.90
37594;DHT22;23441;50.856;6.076;2022-10-16T10:46:47;16.70;99.90
37594;DHT22;23441;50.856;6.076;2022-10-16T11:00:55;16.90;99.90
37594;DHT22;23441;50.856;6.076;2022-10-16T11:06:07;18.70;99.90
37594;DHT22;23441;50.856;6.076;2022-10-16T11:08:53;18.20;99.90
37594;DHT22;23441;50.856;6.076;2022-10-16T11:11:33;17.90;99.90
37594;DHT22;23441;50.856;6.076;2022-10-16T11:16:51;17.80;99.90
37594;DHT22;23441;50.856;6.076;2022-10-16T11:22:01;18.00;99.90
37594;DHT22;23441;50.856;6.076;2022-10-16T11:24:44;18.10;99.90
37594;DHT22;23441;50.856;6.076;2022-10-16T11:27:15;18.30;99.90
37594;DHT22;23441;50.856;6.076;2022-10-16T11:29:51;18.30;99.90
37594;DHT22;23441;50.856;6.076;2022-10-16T11:32:26;18.30;99.90
37594;DHT22;23441;50.856;6.076;2022-10-16T11:34:57;18.30;99.90
37594;DHT22;23441;50.856;6.076;2022-10-16T11:37:40;18.20;99.90
37594;DHT22;23441;50.856;6.076;2022-10-16T11:40:21;18.30;99.90
37594;DHT22;23441;50.856;6.076;2022-10-16T11:43:21;18.30;99.90
37594;DHT22;23441;50.856;6.076;2022-10-16T11:45:53;18.50;99.90
37594;DHT22;23441;50.856;6.076;2022-10-16T11:51:00;18.60;99.90
37594;DHT22;23441;50.856;6.076;2022-10-16T11:53:49;18.80;99.90
37594;DHT22;23441;50.856;6.076;2022-10-16T11:56:18;19.00;99.90
37594;DHT22;23441;50.856;6.076;2022-10-16T12:01:22;19.10;99.90
37594;DHT22;23441;50.856;6.076;2022-10-16T12:06:42;19.30;99.90
37594;DHT22;23441;50.856;6.076;2022-10-16T12:09:20;19.40;99.90
37594;DHT22;23441;50.856;6.076;2022-10-16T12:11:47;19.30;99.90
37594;DHT22;23441;50.856;6.076;2022-10-16T12:19:19;19.60;99.90
37594;DHT22;23441;50.856;6.076;2022-10-16T12:21:46;19.90;99.90
37594;DHT22;23441;50.856;6.076;2022-10-16T12:26:53;20.40;99.90
37594;DHT22;23441;50.856;6.076;2022-10-16T12:29:33;20.50;99.90
37594;DHT22;23441;50.856;6.076;2022-10-16T12:32:00;20.80;99.90
37594;DHT22;23441;50.856;6.076;2022-10-16T12:34:32;21.00;99.90
37594;DHT22;23441;50.856;6.076;2022-10-16T12:39:49;21.10;99.90
37594;DHT22;23441;50.856;6.076;2022-10-16T12:44:54;21.50;99.90
37594;DHT22;23441;50.856;6.076;2022-10-16T12:47:23;21.20;99.90
37594;DHT22;23441;50.856;6.076;2022-10-16T12:49:52;21.30;99.90
37594;DHT22;23441;50.856;6.076;2022-10-16T12:52:36;21.10;99.90
37594;DHT22;23441;50.856;6.076;2022-10-16T12:55:05;21.20;99.90
37594;DHT22;23441;50.856;6.076;2022-10-16T13:03:05;21.00;99.90
37594;DHT22;23441;50.856;6.076;2022-10-16T13:06:08;21.10;99.90
37594;DHT22;23441;50.856;6.076;2022-10-16T13:11:41;20.90;99.90
37594;DHT22;23441;50.856;6.076;2022-10-16T13:19:57;21.10;99.90
37594;DHT22;23441;50.856;6.076;2022-10-16T13:30:26;21.00;99.90
37594;DHT22;23441;50.856;6.076;2022-10-16T13:33:00;20.80;99.90
37594;DHT22;23441;50.856;6.076;2022-10-16T13:35:32;20.80;99.90
37594;DHT22;23441;50.856;6.076;2022-10-16T13:38:12;20.80;99.90
37594;DHT22;23441;50.856;6.076;2022-10-16T13:41:18;20.70;99.90
37594;DHT22;23441;50.856;6.076;2022-10-16T13:43:50;20.70;99.90
37594;DHT22;23441;50.856;6.076;2022-10-16T13:46:19;20.80;99.90
37594;DHT22;23441;50.856;6.076;2022-10-16T13:48:57;20.90;99.90
37594;DHT22;23441;50.856;6.076;2022-10-16T13:51:23;20.90;99.90
37594;DHT22;23441;50.856;6.076;2022-10-16T13:53:49;21.00;99.90
37594;DHT22;23441;50.856;6.076;2022-10-16T13:56:20;20.60;99.90
37594;DHT22;23441;50.856;6.076;2022-10-16T13:59:01;20.40;99.90
37594;DHT22;23441;50.856;6.076;2022-10-16T14:01:42;20.00;99.90
37594;DHT22;23441;50.856;6.076;2022-10-16T14:04:11;19.80;99.90
37594;DHT22;23441;50.856;6.076;2022-10-16T14:06:41;19.70;99.90
37594;DHT22;23441;50.856;6.076;2022-10-16T14:09:28;19.60;99.90
37594;DHT22;23441;50.856;6.076;2022-10-16T14:14:21;19.60;99.90
37594;DHT22;23441;50.856;6.076;2022-10-16T14:16:48;19.60;99.90
37594;DHT22;23441;50.856;6.076;2022-10-16T14:19:24;19.60;99.90
37594;DHT22;23441;50.856;6.076;2022-10-16T14:21:51;19.80;99.90
37594;DHT22;23441;50.856;6.076;2022-10-16T14:24:31;19.80;99.90
37594;DHT22;23441;50.856;6.076;2022-10-16T14:26:58;19.90;99.90
37594;DHT22;23441;50.856;6.076;2022-10-16T14:29:26;19.90;99.90
37594;DHT22;23441;50.856;6.076;2022-10-16T14:32:04;19.90;99.90
37594;DHT22;23441;50.856;6.076;2022-10-16T14:34:35;19.80;99.90
37594;DHT22;23441;50.856;6.076;2022-10-16T14:37:19;19.80;99.90
37594;DHT22;23441;50.856;6.076;2022-10-16T14:39:52;19.70;99.90
37594;DHT22;23441;50.856;6.076;2022-10-16T14:42:20;19.70;99.90
37594;DHT22;23441;50.856;6.076;2022-10-16T14:44:50;19.70;99.90
37594;DHT22;23441;50.856;6.076;2022-10-16T14:47:21;19.60;99.90
37594;DHT22;23441;50.856;6.076;2022-10-16T14:49:54;19.60;99.90
37594;DHT22;23441;50.856;6.076;2022-10-16T14:52:25;19.60;99.90
37594;DHT22;23441;50.856;6.076;2022-10-16T14:54:51;19.70;99.90
37594;DHT22;23441;50.856;6.076;2022-10-16T14:57:26;19.70;99.90
37594;DHT22;23441;50.856;6.076;2022-10-16T14:59:53;19.60;99.90
37594;DHT22;23441;50.856;6.076;2022-10-16T15:04:54;19.50;99.90
37594;DHT22;23441;50.856;6.076;2022-10-16T15:07:20;19.40;99.90
37594;DHT22;23441;50.856;6.076;2022-10-16T15:09:46;19.30;99.90
37594;DHT22;23441;50.856;6.076;2022-10-16T15:12:12;19.20;99.90
37594;DHT22;23441;50.856;6.076;2022-10-16T15:14:38;19.10;99.90
37594;DHT22;23441;50.856;6.076;2022-10-16T15:17:04;19.00;99.90
37594;DHT22;23441;50.856;6.076;2022-10-16T15:19:30;19.00;99.90
37594;DHT22;23441;50.856;6.076;2022-10-16T15:21:56;19.00;99.90
37594;DHT22;23441;50.856;6.076;2022-10-16T15:24:22;18.90;99.90
37594;DHT22;23441;50.856;6.076;2022-10-16T15:26:48;18.90;99.90
37594;DHT22;23441;50.856;6.076;2022-10-16T15:29:15;18.90;99.90
37594;DHT22;23441;50.856;6.076;2022-10-16T15:31:41;18.90;99.90
37594;DHT22;23441;50.856;6.076;2022-10-16T15:34:11;18.80;99.90
37594;DHT22;23441;50.856;6.076;2022-10-16T15:36:40;18.80;99.90
37594;DHT22;23441;50.856;6.076;2022-10-16T15:39:17;18.70;99.90
37594;DHT22;23441;50.856;6.076;2022-10-16T15:41:45;18.70;99.90
37594;DHT22;23441;50.856;6.076;2022-10-16T15:44:16;18.60;99.90
37594;DHT22;23441;50.856;6.076;2022-10-16T15:46:42;18.50;99.90
37594;DHT22;23441;50.856;6.076;2022-10-16T15:49:09;18.50;99.90
37594;DHT22;23441;50.856;6.076;2022-10-16T15:51:38;18.40;99.90
37594;DHT22;23441;50.856;6.076;2022-10-16T15:54:04;18.40;99.90
37594;DHT22;23441;50.856;6.076;2022-10-16T15:56:30;18.40;99.90
37594;DHT22;23441;50.856;6.076;2022-10-16T15:58:59;18.30;99.90
37594;DHT22;23441;50.856;6.076;2022-10-16T16:01:26;18.30;99.90
37594;DHT22;23441;50.856;6.076;2022-10-16T16:03:53;18.20;99.90
37594;DHT22;23441;50.856;6.076;2022-10-16T16:06:20;18.10;99.90
37594;DHT22;23441;50.856;6.076;2022-10-16T16:08:46;18.00;99.90
37594;DHT22;23441;50.856;6.076;2022-10-16T16:11:15;18.00;99.90
37594;DHT22;23441;50.856;6.076;2022-10-16T16:13:41;17.90;99.90
37594;DHT22;23441;50.856;6.076;2022-10-16T16:16:12;17.90;99.90
37594;DHT22;23441;50.856;6.076;2022-10-16T16:18:39;17.80;99.90
37594;DHT22;23441;50.856;6.076;2022-10-16T16:21:05;17.80;99.90
37594;DHT22;23441;50.856;6.076;2022-10-16T16:23:31;17.70;99.90
37594;DHT22;23441;50.856;6.076;2022-10-16T16:26:04;17.70;99.90
37594;DHT22;23441;50.856;6.076;2022-10-16T16:28:30;17.50;99.90
37594;DHT22;23441;50.856;6.076;2022-10-16T16:30:56;17.50;99.90
37594;DHT22;23441;50.856;6.076;2022-10-16T16:33:22;17.50;99.90
37594;DHT22;23441;50.856;6.076;2022-10-16T16:35:48;17.40;99.90
37594;DHT22;23441;50.856;6.076;2022-10-16T16:38:14;17.30;99.90
37594;DHT22;23441;50.856;6.076;2022-10-16T16:40:39;17.20;99.90
37594;DHT22;23441;50.856;6.076;2022-10-16T16:43:05;17.20;99.90
37594;DHT22;23441;50.856;6.076;2022-10-16T16:45:35;17.20;99.90
37594;DHT22;23441;50.856;6.076;2022-10-16T16:48:00;17.10;99.90
37594;DHT22;23441;50.856;6.076;2022-10-16T16:50:26;17.10;99.90
37594;DHT22;23441;50.856;6.076;2022-10-16T16:52:52;17.10;99.90
37594;DHT22;23441;50.856;6.076;2022-10-16T16:55:18;17.00;99.90
37594;DHT22;23441;50.856;6.076;2022-10-16T16:57:44;16.90;99.90
37594;DHT22;23441;50.856;6.076;2022-10-16T17:00:13;16.90;99.90
37594;DHT22;23441;50.856;6.076;2022-10-16T17:02:39;16.90;99.90
37594;DHT22;23441;50.856;6.076;2022-10-16T17:05:09;16.80;99.90
37594;DHT22;23441;50.856;6.076;2022-10-16T17:07:35;16.90;99.90
37594;DHT22;23441;50.856;6.076;2022-10-16T17:10:01;16.80;99.90
37594;DHT22;23441;50.856;6.076;2022-10-16T17:12:29;16.80;99.90
37594;DHT22;23441;50.856;6.076;2022-10-16T17:14:55;16.80;99.90
37594;DHT22;23441;50.856;6.076;2022-10-16T17:17:21;16.80;99.90
37594;DHT22;23441;50.856;6.076;2022-10-16T17:19:49;16.70;99.90
37594;DHT22;23441;50.856;6.076;2022-10-16T17:22:16;16.70;99.90
37594;DHT22;23441;50.856;6.076;2022-10-16T17:24:42;16.70;99.90
37594;DHT22;23441;50.856;6.076;2022-10-16T17:27:08;16.70;99.90
37594;DHT22;23441;50.856;6.076;2022-10-16T17:29:35;16.70;99.90
37594;DHT22;23441;50.856;6.076;2022-10-16T17:32:00;16.70;99.90
37594;DHT22;23441;50.856;6.076;2022-10-16T17:34:27;16.70;99.90
37594;DHT22;23441;50.856;6.076;2022-10-16T17:36:52;16.70;99.90
37594;DHT22;23441;50.856;6.076;2022-10-16T17:39:18;16.60;99.90
37594;DHT22;23441;50.856;6.076;2022-10-16T17:41:46;16.50;99.90
37594;DHT22;23441;50.856;6.076;2022-10-16T17:44:16;16.50;99.90
37594;DHT22;23441;50.856;6.076;2022-10-16T17:46:46;16.60;99.90
37594;DHT22;23441;50.856;6.076;2022-10-16T17:49:12;16.50;99.90
37594;DHT22;23441;50.856;6.076;2022-10-16T17:51:38;16.50;99.90